sensor_id;sensor_type;location;lat;lon;timestamp;pressure;altitude;pressure_sealevel;temperature;humidity
57038;BME280;59942;49.304;8.256;2024-02-14T00:01:12;100843.16;;;4.83;95.14
57038;BME280;59942;49.304;8.256;2024-02-14T00:03:39;100839.75;;;4.81;94.36
57038;BME280;59942;49.304;8.256;2024-02-14T00:06:06;100844.91;;;4.80;97.57
57038;BME280;59942;49.304;8.256;2024-02-14T00:08:35;100816.03;;;4.58;95.25
57038;BME280;59942;49.304;8.256;2024-02-14T00:11:02;100834.66;;;4.78;96.01
57038;BME280;59942;49.304;8.256;2024-02-14T00:13:28;100837.97;;;4.85;96.31
57038;BME280;59942;49.304;8.256;2024-02-14T00:15:55;100831.03;;;4.93;97.08
57038;BME280;59942;49.304;8.256;2024-02-14T00:18:25;100834.59;;;4.83;97.80
57038;BME280;59942;49.304;8.256;2024-02-14T00:20:52;100837.22;;;4.80;99.35
57038;BME280;59942;49.304;8.256;2024-02-14T00:23:19;100841.50;;;4.76;99.17
57038;BME280;59942;49.304;8.256;2024-02-14T00:25:45;100845.66;;;4.91;98.25
57038;BME280;59942;49.304;8.256;2024-02-14T00:28:14;100841.38;;;4.89;99.32
57038;BME280;59942;49.304;8.256;2024-02-14T00:30:43;100840.66;;;4.76;98.47
57038;BME280;59942;49.304;8.256;2024-02-14T00:33:10;100828.66;;;4.78;98.56
57038;BME280;59942;49.304;8.256;2024-02-14T00:35:36;100842.25;;;4.87;97.41
57038;BME280;59942;49.304;8.256;2024-02-14T00:38:03;100836.19;;;4.93;97.88
57038;BME280;59942;49.304;8.256;2024-02-14T00:40:32;100840.44;;;4.97;97.65
57038;BME280;59942;49.304;8.256;2024-02-14T00:43:01;100834.59;;;4.83;100.00
57038;BME280;59942;49.304;8.256;2024-02-14T00:45:31;100825.03;;;4.94;100.00
57038;BME280;59942;49.304;8.256;2024-02-14T00:47:57;100818.31;;;4.82;100.00
57038;BME280;59942;49.304;8.256;2024-02-14T00:50:24;100816.75;;;4.69;100.00
57038;BME280;59942;49.304;8.256;2024-02-14T00:52:51;100812.63;;;4.57;100.00
57038;BME280;59942;49.304;8.256;2024-02-14T00:55:18;100811.91;;;4.43;100.00
57038;BME280;59942;49.304;8.256;2024-02-14T00:57:44;100818.59;;;4.58;100.00
57038;BME280;59942;49.304;8.256;2024-02-14T01:00:11;100819.56;;;4.47;100.00
57038;BME280;59942;49.304;8.256;2024-02-14T01:02:38;100811.84;;;4.47;100.00
57038;BME280;59942;49.304;8.256;2024-02-14T01:05:07;100806.69;;;4.54;100.00
57038;BME280;59942;49.304;8.256;2024-02-14T01:07:33;100796.66;;;4.26;100.00
57038;BME280;59942;49.304;8.256;2024-02-14T01:10:00;100811.09;;;4.41;100.00
57038;BME280;59942;49.304;8.256;2024-02-14T01:12:26;100810.88;;;4.61;100.00
57038;BME280;59942;49.304;8.256;2024-02-14T01:14:53;100811.00;;;4.48;100.00
57038;BME280;59942;49.304;8.256;2024-02-14T01:17:20;100794.97;;;4.26;100.00
57038;BME280;59942;49.304;8.256;2024-02-14T01:19:46;100805.97;;;4.39;100.00
57038;BME280;59942;49.304;8.256;2024-02-14T01:22:13;100814.53;;;4.38;100.00
57038;BME280;59942;49.304;8.256;2024-02-14T01:24:42;100804.19;;;4.44;100.00
57038;BME280;59942;49.304;8.256;2024-02-14T01:27:09;100803.41;;;4.34;100.00
57038;BME280;59942;49.304;8.256;2024-02-14T01:29:38;100782.16;;;4.20;100.00
57038;BME280;59942;49.304;8.256;2024-02-14T01:32:05;100805.06;;;4.42;100.00
57038;BME280;59942;49.304;8.256;2024-02-14T01:34:33;100792.19;;;4.45;100.00
57038;BME280;59942;49.304;8.256;2024-02-14T01:37:02;100791.53;;;4.26;100.00
57038;BME280;59942;49.304;8.256;2024-02-14T01:39:28;100783.97;;;4.13;100.00
57038;BME280;59942;49.304;8.256;2024-02-14T01:41:57;100779.63;;;4.18;100.00
57038;BME280;59942;49.304;8.256;2024-02-14T01:44:24;100777.06;;;4.18;100.00
57038;BME280;59942;49.304;8.256;2024-02-14T01:46:53;100775.41;;;4.11;100.00
57038;BME280;59942;49.304;8.256;2024-02-14T01:49:20;100772.00;;;4.12;100.00
57038;BME280;59942;49.304;8.256;2024-02-14T01:51:47;100781.34;;;4.20;100.00
57038;BME280;59942;49.304;8.256;2024-02-14T01:54:14;100768.38;;;4.32;100.00
57038;BME280;59942;49.304;8.256;2024-02-14T01:56:43;100771.88;;;4.26;100.00
57038;BME280;59942;49.304;8.256;2024-02-14T01:59:13;100763.38;;;4.20;100.00
57038;BME280;59942;49.304;8.256;2024-02-14T02:01:42;100765.97;;;4.15;100.00
57038;BME280;59942;49.304;8.256;2024-02-14T02:04:09;100767.66;;;4.19;100.00
57038;BME280;59942;49.304;8.256;2024-02-14T02:06:36;100765.09;;;4.19;100.00
57038;BME280;59942;49.304;8.256;2024-02-14T02:09:03;100764.97;;;4.28;100.00
57038;BME280;59942;49.304;8.256;2024-02-14T02:11:46;100762.47;;;4.25;100.00
57038;BME280;59942;49.304;8.256;2024-02-14T02:14:15;100770.00;;;4.38;100.00
57038;BME280;59942;49.304;8.256;2024-02-14T02:16:45;100761.59;;;4.26;100.00
57038;BME280;59942;49.304;8.256;2024-02-14T02:19:12;100753.03;;;4.24;100.00
57038;BME280;59942;49.304;8.256;2024-02-14T02:21:42;100747.91;;;4.26;100.00
57038;BME280;59942;49.304;8.256;2024-02-14T02:24:12;100750.25;;;4.44;100.00
57038;BME280;59942;49.304;8.256;2024-02-14T02:26:39;100747.84;;;4.32;100.00
57038;BME280;59942;49.304;8.256;2024-02-14T02:29:05;100749.50;;;4.34;100.00
57038;BME280;59942;49.304;8.256;2024-02-14T02:31:32;100748.66;;;4.34;100.00
57038;BME280;59942;49.304;8.256;2024-02-14T02:34:02;100733.13;;;4.48;100.00
57038;BME280;59942;49.304;8.256;2024-02-14T02:36:29;100738.16;;;4.56;100.00
57038;BME280;59942;49.304;8.256;2024-02-14T02:38:59;100733.81;;;4.61;100.00
57038;BME280;59942;49.304;8.256;2024-02-14T02:41:26;100733.78;;;4.64;100.00
57038;BME280;59942;49.304;8.256;2024-02-14T02:43:55;100726.00;;;4.70;100.00
57038;BME280;59942;49.304;8.256;2024-02-14T02:46:22;100738.59;;;4.89;100.00
57038;BME280;59942;49.304;8.256;2024-02-14T02:48:51;100740.28;;;4.93;100.00
57038;BME280;59942;49.304;8.256;2024-02-14T02:51:21;100734.25;;;4.94;100.00
57038;BME280;59942;49.304;8.256;2024-02-14T02:53:50;100736.69;;;5.03;100.00
57038;BME280;59942;49.304;8.256;2024-02-14T02:56:19;100741.75;;;5.09;100.00
57038;BME280;59942;49.304;8.256;2024-02-14T02:58:48;100740.78;;;5.16;100.00
57038;BME280;59942;49.304;8.256;2024-02-14T03:01:17;100732.22;;;5.17;100.00
57038;BME280;59942;49.304;8.256;2024-02-14T03:03:43;100734.84;;;5.11;100.00
57038;BME280;59942;49.304;8.256;2024-02-14T03:06:10;100751.03;;;5.19;100.00
57038;BME280;59942;49.304;8.256;2024-02-14T03:08:38;100757.00;;;5.21;100.00
57038;BME280;59942;49.304;8.256;2024-02-14T03:11:07;100746.50;;;5.35;100.00
57038;BME280;59942;49.304;8.256;2024-02-14T03:13:34;100757.47;;;5.48;100.00
57038;BME280;59942;49.304;8.256;2024-02-14T03:16:04;100760.88;;;5.49;99.58
57038;BME280;59942;49.304;8.256;2024-02-14T03:18:32;100758.19;;;5.56;99.52
57038;BME280;59942;49.304;8.256;2024-02-14T03:20:59;100760.66;;;5.63;98.77
57038;BME280;59942;49.304;8.256;2024-02-14T03:23:28;100756.25;;;5.71;97.43
57038;BME280;59942;49.304;8.256;2024-02-14T03:25:55;100755.34;;;5.75;97.58
57038;BME280;59942;49.304;8.256;2024-02-14T03:28:24;100751.84;;;5.78;96.66
57038;BME280;59942;49.304;8.256;2024-02-14T03:30:53;100757.66;;;5.89;95.93
57038;BME280;59942;49.304;8.256;2024-02-14T03:33:25;100768.84;;;5.88;97.05
57038;BME280;59942;49.304;8.256;2024-02-14T03:35:54;100768.88;;;5.85;97.20
57038;BME280;59942;49.304;8.256;2024-02-14T03:38:25;100741.56;;;5.76;96.60
57038;BME280;59942;49.304;8.256;2024-02-14T03:40:53;100760.97;;;5.99;96.21
57038;BME280;59942;49.304;8.256;2024-02-14T03:43:19;100769.41;;;6.07;95.58
57038;BME280;59942;49.304;8.256;2024-02-14T03:45:50;100774.50;;;6.10;95.52
57038;BME280;59942;49.304;8.256;2024-02-14T03:48:18;100771.06;;;6.11;95.38
57038;BME280;59942;49.304;8.256;2024-02-14T03:50:44;100770.19;;;6.11;94.86
57038;BME280;59942;49.304;8.256;2024-02-14T03:53:14;100764.94;;;6.15;94.57
57038;BME280;59942;49.304;8.256;2024-02-14T03:55:41;100729.03;;;6.09;94.66
57038;BME280;59942;49.304;8.256;2024-02-14T03:58:11;100751.91;;;6.24;94.06
57038;BME280;59942;49.304;8.256;2024-02-14T04:00:41;100738.31;;;6.16;94.50
57038;BME280;59942;49.304;8.256;2024-02-14T04:03:13;100757.22;;;6.15;95.11
57038;BME280;59942;49.304;8.256;2024-02-14T04:05:40;100764.94;;;6.17;96.32
57038;BME280;59942;49.304;8.256;2024-02-14T04:08:06;100769.22;;;6.16;95.16
57038;BME280;59942;49.304;8.256;2024-02-14T04:10:36;100764.16;;;6.12;96.74
57038;BME280;59942;49.304;8.256;2024-02-14T04:13:04;100783.06;;;6.11;97.64
57038;BME280;59942;49.304;8.256;2024-02-14T04:15:31;100775.38;;;6.09;97.91
57038;BME280;59942;49.304;8.256;2024-02-14T04:17:58;100787.41;;;6.08;97.95
57038;BME280;59942;49.304;8.256;2024-02-14T04:20:32;100755.97;;;5.86;98.29
57038;BME280;59942;49.304;8.256;2024-02-14T04:22:59;100781.66;;;5.91;98.26
57038;BME280;59942;49.304;8.256;2024-02-14T04:25:28;100797.75;;;6.05;98.49
57038;BME280;59942;49.304;8.256;2024-02-14T04:27:54;100797.81;;;6.02;99.71
57038;BME280;59942;49.304;8.256;2024-02-14T04:30:21;100796.09;;;6.01;99.67
57038;BME280;59942;49.304;8.256;2024-02-14T04:32:47;100802.00;;;6.06;99.92
57038;BME280;59942;49.304;8.256;2024-02-14T04:35:15;100789.06;;;6.11;98.29
57038;BME280;59942;49.304;8.256;2024-02-14T04:37:44;100784.75;;;6.12;98.05
57038;BME280;59942;49.304;8.256;2024-02-14T04:40:15;100798.31;;;6.21;97.28
57038;BME280;59942;49.304;8.256;2024-02-14T04:42:41;100784.63;;;6.19;96.82
57038;BME280;59942;49.304;8.256;2024-02-14T04:45:13;100799.06;;;6.26;96.73
57038;BME280;59942;49.304;8.256;2024-02-14T04:47:40;100778.72;;;6.14;97.26
57038;BME280;59942;49.304;8.256;2024-02-14T04:50:07;100790.50;;;6.26;96.92
57038;BME280;59942;49.304;8.256;2024-02-14T04:52:33;100793.09;;;6.26;97.37
57038;BME280;59942;49.304;8.256;2024-02-14T04:55:03;100786.41;;;6.16;98.81
57038;BME280;59942;49.304;8.256;2024-02-14T04:57:30;100785.53;;;6.15;99.30
57038;BME280;59942;49.304;8.256;2024-02-14T04:59:57;100786.34;;;6.19;98.72
57038;BME280;59942;49.304;8.256;2024-02-14T05:02:26;100790.53;;;6.24;98.02
57038;BME280;59942;49.304;8.256;2024-02-14T05:04:54;100786.28;;;6.22;98.31
57038;BME280;59942;49.304;8.256;2024-02-14T05:07:23;100787.22;;;6.18;98.79
57038;BME280;59942;49.304;8.256;2024-02-14T05:09:52;100775.97;;;6.23;98.14
57038;BME280;59942;49.304;8.256;2024-02-14T05:12:18;100783.56;;;6.31;97.25
57038;BME280;59942;49.304;8.256;2024-02-14T05:14:46;100792.09;;;6.33;96.89
57038;BME280;59942;49.304;8.256;2024-02-14T05:17:12;100783.47;;;6.36;96.98
57038;BME280;59942;49.304;8.256;2024-02-14T05:19:43;100779.09;;;6.39;96.43
57038;BME280;59942;49.304;8.256;2024-02-14T05:22:11;100773.88;;;6.42;95.70
57038;BME280;59942;49.304;8.256;2024-02-14T05:24:40;100759.38;;;6.40;95.12
57038;BME280;59942;49.304;8.256;2024-02-14T05:27:07;100773.00;;;6.45;95.73
57038;BME280;59942;49.304;8.256;2024-02-14T05:29:34;100772.16;;;6.45;95.59
57038;BME280;59942;49.304;8.256;2024-02-14T05:32:05;100772.09;;;6.48;95.50
57038;BME280;59942;49.304;8.256;2024-02-14T05:34:32;100770.41;;;6.45;96.09
57038;BME280;59942;49.304;8.256;2024-02-14T05:36:58;100780.75;;;6.43;96.78
57038;BME280;59942;49.304;8.256;2024-02-14T05:39:27;100779.09;;;6.39;95.86
57038;BME280;59942;49.304;8.256;2024-02-14T05:41:54;100787.56;;;6.46;96.79
57038;BME280;59942;49.304;8.256;2024-02-14T05:44:21;100791.91;;;6.42;97.09
57038;BME280;59942;49.304;8.256;2024-02-14T05:46:48;100774.09;;;6.32;96.64
57038;BME280;59942;49.304;8.256;2024-02-14T05:49:17;100791.16;;;6.39;96.90
57038;BME280;59942;49.304;8.256;2024-02-14T05:51:44;100800.56;;;6.38;97.77
57038;BME280;59942;49.304;8.256;2024-02-14T05:54:13;100799.72;;;6.39;97.42
57038;BME280;59942;49.304;8.256;2024-02-14T05:56:40;100807.44;;;6.39;97.61
57038;BME280;59942;49.304;8.256;2024-02-14T05:59:06;100815.09;;;6.42;97.97
57038;BME280;59942;49.304;8.256;2024-02-14T06:01:33;100805.78;;;6.35;97.95
57038;BME280;59942;49.304;8.256;2024-02-14T06:04:00;100800.66;;;6.34;98.17
57038;BME280;59942;49.304;8.256;2024-02-14T06:06:29;100819.44;;;6.40;98.61
57038;BME280;59942;49.304;8.256;2024-02-14T06:08:55;100807.44;;;6.39;97.92
57038;BME280;59942;49.304;8.256;2024-02-14T06:11:25;100810.16;;;6.32;99.65
57038;BME280;59942;49.304;8.256;2024-02-14T06:13:51;100811.78;;;6.37;99.02
57038;BME280;59942;49.304;8.256;2024-02-14T06:16:18;100797.38;;;6.27;99.31
57038;BME280;59942;49.304;8.256;2024-02-14T06:18:45;100809.19;;;6.39;98.67
57038;BME280;59942;49.304;8.256;2024-02-14T06:21:14;100812.66;;;6.36;99.11
57038;BME280;59942;49.304;8.256;2024-02-14T06:23:40;100810.13;;;6.33;99.59
57038;BME280;59942;49.304;8.256;2024-02-14T06:26:13;100804.16;;;6.31;100.00
57038;BME280;59942;49.304;8.256;2024-02-14T06:28:40;100815.41;;;6.27;100.00
57038;BME280;59942;49.304;8.256;2024-02-14T06:31:07;100818.59;;;6.38;100.00
57038;BME280;59942;49.304;8.256;2024-02-14T06:33:33;100816.03;;;6.38;100.00
57038;BME280;59942;49.304;8.256;2024-02-14T06:36:00;100810.88;;;6.40;100.00
57038;BME280;59942;49.304;8.256;2024-02-14T06:38:27;100808.31;;;6.38;100.00
57038;BME280;59942;49.304;8.256;2024-02-14T06:40:54;100821.91;;;6.47;100.00
57038;BME280;59942;49.304;8.256;2024-02-14T06:43:20;100833.25;;;6.36;100.00
57038;BME280;59942;49.304;8.256;2024-02-14T06:45:47;100805.88;;;6.31;100.00
57038;BME280;59942;49.304;8.256;2024-02-14T06:48:18;100828.00;;;6.41;100.00
57038;BME280;59942;49.304;8.256;2024-02-14T06:50:48;100834.78;;;6.47;100.00
57038;BME280;59942;49.304;8.256;2024-02-14T06:53:17;100844.97;;;6.54;100.00
57038;BME280;59942;49.304;8.256;2024-02-14T06:55:46;100837.22;;;6.53;100.00
57038;BME280;59942;49.304;8.256;2024-02-14T06:58:13;100838.13;;;6.52;100.00
57038;BME280;59942;49.304;8.256;2024-02-14T07:00:44;100841.56;;;6.51;100.00
57038;BME280;59942;49.304;8.256;2024-02-14T07:03:11;100844.06;;;6.55;100.00
57038;BME280;59942;49.304;8.256;2024-02-14T07:05:37;100838.16;;;6.50;100.00
57038;BME280;59942;49.304;8.256;2024-02-14T07:08:04;100839.09;;;6.46;100.00
57038;BME280;59942;49.304;8.256;2024-02-14T07:10:33;100846.19;;;6.33;100.00
57038;BME280;59942;49.304;8.256;2024-02-14T07:12:59;100848.59;;;6.42;100.00
57038;BME280;59942;49.304;8.256;2024-02-14T07:15:28;100852.78;;;6.48;100.00
57038;BME280;59942;49.304;8.256;2024-02-14T07:17:55;100842.47;;;6.48;100.00
57038;BME280;59942;49.304;8.256;2024-02-14T07:20:24;100863.88;;;6.53;100.00
57038;BME280;59942;49.304;8.256;2024-02-14T07:22:55;100853.69;;;6.47;100.00
57038;BME280;59942;49.304;8.256;2024-02-14T07:25:23;100862.16;;;6.52;100.00
57038;BME280;59942;49.304;8.256;2024-02-14T07:27:51;100859.63;;;6.49;100.00
57038;BME280;59942;49.304;8.256;2024-02-14T07:30:18;100875.03;;;6.52;100.00
57038;BME280;59942;49.304;8.256;2024-02-14T07:32:45;100873.31;;;6.53;100.00
57038;BME280;59942;49.304;8.256;2024-02-14T07:35:12;100883.56;;;6.56;100.00
57038;BME280;59942;49.304;8.256;2024-02-14T07:37:40;100855.47;;;6.42;100.00
57038;BME280;59942;49.304;8.256;2024-02-14T07:40:10;100869.81;;;6.57;100.00
57038;BME280;59942;49.304;8.256;2024-02-14T07:42:36;100886.91;;;6.61;100.00
57038;BME280;59942;49.304;8.256;2024-02-14T07:45:04;100882.56;;;6.65;100.00
57038;BME280;59942;49.304;8.256;2024-02-14T07:47:30;100885.81;;;6.73;100.00
57038;BME280;59942;49.304;8.256;2024-02-14T07:49:57;100892.63;;;6.77;100.00
57038;BME280;59942;49.304;8.256;2024-02-14T07:52:24;100879.84;;;6.72;100.00
57038;BME280;59942;49.304;8.256;2024-02-14T07:54:52;100884.88;;;6.78;100.00
57038;BME280;59942;49.304;8.256;2024-02-14T07:57:21;100895.19;;;6.78;100.00
57038;BME280;59942;49.304;8.256;2024-02-14T07:59:48;100892.69;;;6.74;100.00
57038;BME280;59942;49.304;8.256;2024-02-14T08:02:17;100898.66;;;6.77;100.00
57038;BME280;59942;49.304;8.256;2024-02-14T08:04:46;100876.47;;;6.67;100.00
57038;BME280;59942;49.304;8.256;2024-02-14T08:07:14;100892.53;;;6.82;100.00
57038;BME280;59942;49.304;8.256;2024-02-14T08:09:40;100868.06;;;6.59;100.00
57038;BME280;59942;49.304;8.256;2024-02-14T08:12:09;100890.88;;;6.79;100.00
57038;BME280;59942;49.304;8.256;2024-02-14T08:14:37;100895.91;;;6.85;100.00
57038;BME280;59942;49.304;8.256;2024-02-14T08:17:05;100895.19;;;6.78;100.00
57038;BME280;59942;49.304;8.256;2024-02-14T08:19:32;100901.81;;;6.90;100.00
57038;BME280;59942;49.304;8.256;2024-02-14T08:22:22;100891.34;;;7.00;100.00
57038;BME280;59942;49.304;8.256;2024-02-14T08:25:12;100904.22;;;7.01;100.00
57038;BME280;59942;49.304;8.256;2024-02-14T08:27:41;100905.91;;;7.02;100.00
57038;BME280;59942;49.304;8.256;2024-02-14T08:30:08;100901.53;;;7.06;100.00
57038;BME280;59942;49.304;8.256;2024-02-14T08:32:35;100898.81;;;7.13;100.00
57038;BME280;59942;49.304;8.256;2024-02-14T08:35:04;100907.47;;;7.11;100.00
57038;BME280;59942;49.304;8.256;2024-02-14T08:37:31;100908.91;;;7.24;100.00
57038;BME280;59942;49.304;8.256;2024-02-14T08:40:03;100904.31;;;7.39;100.00
57038;BME280;59942;49.304;8.256;2024-02-14T08:42:37;100898.16;;;7.46;100.00
57038;BME280;59942;49.304;8.256;2024-02-14T08:45:05;100896.34;;;7.50;100.00
57038;BME280;59942;49.304;8.256;2024-02-14T08:47:31;100896.88;;;7.64;100.00
57038;BME280;59942;49.304;8.256;2024-02-14T08:49:58;100895.91;;;7.70;100.00
57038;BME280;59942;49.304;8.256;2024-02-14T08:52:26;100891.44;;;7.78;100.00
57038;BME280;59942;49.304;8.256;2024-02-14T08:54:53;100879.59;;;7.69;100.00
57038;BME280;59942;49.304;8.256;2024-02-14T08:57:19;100886.78;;;7.92;100.00
57038;BME280;59942;49.304;8.256;2024-02-14T08:59:47;100884.50;;;8.17;100.00
57038;BME280;59942;49.304;8.256;2024-02-14T09:02:16;100886.88;;;8.25;100.00
57038;BME280;59942;49.304;8.256;2024-02-14T09:04:47;100881.72;;;8.25;100.00
57038;BME280;59942;49.304;8.256;2024-02-14T09:07:16;100865.09;;;8.35;100.00
57038;BME280;59942;49.304;8.256;2024-02-14T09:09:45;100886.41;;;8.44;100.00
57038;BME280;59942;49.304;8.256;2024-02-14T09:12:12;100879.91;;;8.27;100.00
57038;BME280;59942;49.304;8.256;2024-02-14T09:14:43;100877.78;;;8.45;100.00
57038;BME280;59942;49.304;8.256;2024-02-14T09:17:10;100892.94;;;8.59;100.00
57038;BME280;59942;49.304;8.256;2024-02-14T09:19:39;100885.19;;;8.59;100.00
57038;BME280;59942;49.304;8.256;2024-02-14T09:22:06;100887.56;;;8.66;100.00
57038;BME280;59942;49.304;8.256;2024-02-14T09:24:35;100878.28;;;8.59;100.00
57038;BME280;59942;49.304;8.256;2024-02-14T09:27:02;100862.97;;;8.51;100.00
57038;BME280;59942;49.304;8.256;2024-02-14T09:29:32;100877.91;;;8.73;100.00
57038;BME280;59942;49.304;8.256;2024-02-14T09:32:00;100867.44;;;8.78;100.00
57038;BME280;59942;49.304;8.256;2024-02-14T09:34:27;100866.41;;;8.85;100.00
57038;BME280;59942;49.304;8.256;2024-02-14T09:36:54;100867.78;;;8.97;100.00
57038;BME280;59942;49.304;8.256;2024-02-14T09:39:22;100865.75;;;9.08;100.00
57038;BME280;59942;49.304;8.256;2024-02-14T09:41:58;100875.22;;;9.09;100.00
57038;BME280;59942;49.304;8.256;2024-02-14T09:44:29;100879.19;;;9.21;100.00
57038;BME280;59942;49.304;8.256;2024-02-14T09:46:56;100880.09;;;9.18;100.00
57038;BME280;59942;49.304;8.256;2024-02-14T09:49:27;100884.22;;;9.26;100.00
57038;BME280;59942;49.304;8.256;2024-02-14T09:51:55;100883.88;;;9.38;100.00
57038;BME280;59942;49.304;8.256;2024-02-14T09:54:23;100890.22;;;9.56;100.00
57038;BME280;59942;49.304;8.256;2024-02-14T09:56:50;100887.94;;;9.75;100.00
57038;BME280;59942;49.304;8.256;2024-02-14T09:59:23;100898.16;;;9.80;100.00
57038;BME280;59942;49.304;8.256;2024-02-14T10:01:50;100895.66;;;9.77;100.00
57038;BME280;59942;49.304;8.256;2024-02-14T10:04:22;100899.50;;;9.91;100.00
57038;BME280;59942;49.304;8.256;2024-02-14T10:06:52;100905.72;;;10.14;100.00
57038;BME280;59942;49.304;8.256;2024-02-14T10:09:22;100904.25;;;10.32;100.00
57038;BME280;59942;49.304;8.256;2024-02-14T10:11:49;100893.31;;;10.51;100.00
57038;BME280;59942;49.304;8.256;2024-02-14T10:14:18;100899.88;;;10.61;100.00
57038;BME280;59942;49.304;8.256;2024-02-14T10:16:45;100898.88;;;10.38;100.00
57038;BME280;59942;49.304;8.256;2024-02-14T10:19:21;100900.63;;;10.38;100.00
57038;BME280;59942;49.304;8.256;2024-02-14T10:22:08;100923.28;;;10.31;100.00
57038;BME280;59942;49.304;8.256;2024-02-14T10:24:34;100927.78;;;10.26;100.00
57038;BME280;59942;49.304;8.256;2024-02-14T10:27:07;100879.03;;;9.84;100.00
57038;BME280;59942;49.304;8.256;2024-02-14T10:29:38;100924.56;;;10.46;100.00
57038;BME280;59942;49.304;8.256;2024-02-14T10:32:04;100932.97;;;10.53;100.00
57038;BME280;59942;49.304;8.256;2024-02-14T10:34:33;100919.88;;;10.57;100.00
57038;BME280;59942;49.304;8.256;2024-02-14T10:37:00;100925.38;;;10.73;100.00
57038;BME280;59942;49.304;8.256;2024-02-14T10:39:29;100912.16;;;10.56;100.00
57038;BME280;59942;49.304;8.256;2024-02-14T10:41:59;100940.03;;;10.74;100.00
57038;BME280;59942;49.304;8.256;2024-02-14T10:44:29;100933.91;;;10.77;100.00
57038;BME280;59942;49.304;8.256;2024-02-14T10:46:59;100942.28;;;10.58;100.00
57038;BME280;59942;49.304;8.256;2024-02-14T10:49:30;100943.75;;;10.92;100.00
57038;BME280;59942;49.304;8.256;2024-02-14T10:51:58;100932.75;;;10.60;100.00
57038;BME280;59942;49.304;8.256;2024-02-14T10:54:31;100929.50;;;10.54;100.00
57038;BME280;59942;49.304;8.256;2024-02-14T10:57:03;100924.56;;;10.71;100.00
57038;BME280;59942;49.304;8.256;2024-02-14T10:59:35;100930.81;;;10.66;100.00
57038;BME280;59942;49.304;8.256;2024-02-14T11:02:03;100934.22;;;10.68;100.00
57038;BME280;59942;49.304;8.256;2024-02-14T11:04:30;100944.44;;;10.72;100.00
57038;BME280;59942;49.304;8.256;2024-02-14T11:06:58;100910.91;;;10.41;100.00
57038;BME280;59942;49.304;8.256;2024-02-14T11:09:47;100941.00;;;10.72;100.00
57038;BME280;59942;49.304;8.256;2024-02-14T11:12:16;100930.09;;;10.62;100.00
57038;BME280;59942;49.304;8.256;2024-02-14T11:14:43;100937.66;;;10.68;100.00
57038;BME280;59942;49.304;8.256;2024-02-14T11:17:18;100936.13;;;10.63;100.00
57038;BME280;59942;49.304;8.256;2024-02-14T11:19:50;100910.06;;;10.66;100.00
57038;BME280;59942;49.304;8.256;2024-02-14T11:22:19;100920.97;;;10.50;100.00
57038;BME280;59942;49.304;8.256;2024-02-14T11:24:46;100929.31;;;10.58;100.00
57038;BME280;59942;49.304;8.256;2024-02-14T11:27:17;100931.97;;;10.57;100.00
57038;BME280;59942;49.304;8.256;2024-02-14T11:29:59;100931.66;;;10.41;100.00
57038;BME280;59942;49.304;8.256;2024-02-14T11:32:27;100921.94;;;10.48;100.00
57038;BME280;59942;49.304;8.256;2024-02-14T11:34:55;100924.72;;;10.41;100.00
57038;BME280;59942;49.304;8.256;2024-02-14T11:37:29;100936.59;;;10.49;100.00
57038;BME280;59942;49.304;8.256;2024-02-14T11:39:58;100935.50;;;10.28;100.00
57038;BME280;59942;49.304;8.256;2024-02-14T11:42:24;100923.63;;;10.49;100.00
57038;BME280;59942;49.304;8.256;2024-02-14T11:44:54;100895.56;;;10.35;100.00
57038;BME280;59942;49.304;8.256;2024-02-14T11:47:24;100920.34;;;10.69;100.00
57038;BME280;59942;49.304;8.256;2024-02-14T11:49:53;100916.47;;;10.55;100.00
57038;BME280;59942;49.304;8.256;2024-02-14T11:52:20;100892.31;;;10.55;100.00
57038;BME280;59942;49.304;8.256;2024-02-14T11:54:51;100916.78;;;10.46;100.00
57038;BME280;59942;49.304;8.256;2024-02-14T11:57:19;100910.66;;;10.49;100.00
57038;BME280;59942;49.304;8.256;2024-02-14T11:59:49;100877.16;;;10.42;100.00
57038;BME280;59942;49.304;8.256;2024-02-14T12:02:17;100902.22;;;10.67;100.00
57038;BME280;59942;49.304;8.256;2024-02-14T12:04:47;100865.78;;;10.47;100.00
57038;BME280;59942;49.304;8.256;2024-02-14T12:07:17;100900.75;;;10.85;100.00
57038;BME280;59942;49.304;8.256;2024-02-14T12:09:48;100897.28;;;10.61;100.00
57038;BME280;59942;49.304;8.256;2024-02-14T12:12:15;100890.31;;;10.62;100.00
57038;BME280;59942;49.304;8.256;2024-02-14T12:14:45;100891.66;;;10.73;100.00
57038;BME280;59942;49.304;8.256;2024-02-14T12:17:16;100890.44;;;11.07;100.00
57038;BME280;59942;49.304;8.256;2024-02-14T12:19:47;100894.81;;;11.07;100.00
57038;BME280;59942;49.304;8.256;2024-02-14T12:22:21;100902.63;;;11.29;100.00
57038;BME280;59942;49.304;8.256;2024-02-14T12:24:47;100901.41;;;11.16;100.00
57038;BME280;59942;49.304;8.256;2024-02-14T12:27:17;100878.63;;;11.24;100.00
57038;BME280;59942;49.304;8.256;2024-02-14T12:29:47;100877.66;;;11.03;100.00
57038;BME280;59942;49.304;8.256;2024-02-14T12:32:17;100896.75;;;11.47;100.00
57038;BME280;59942;49.304;8.256;2024-02-14T12:34:44;100892.69;;;11.40;100.00
57038;BME280;59942;49.304;8.256;2024-02-14T12:37:11;100895.38;;;11.61;100.00
57038;BME280;59942;49.304;8.256;2024-02-14T12:39:40;100896.06;;;11.66;100.00
57038;BME280;59942;49.304;8.256;2024-02-14T12:42:07;100890.03;;;11.42;100.00
57038;BME280;59942;49.304;8.256;2024-02-14T12:44:35;100910.81;;;11.42;100.00
57038;BME280;59942;49.304;8.256;2024-02-14T12:47:04;100910.25;;;11.34;100.00
57038;BME280;59942;49.304;8.256;2024-02-14T12:49:31;100912.13;;;11.30;100.00
57038;BME280;59942;49.304;8.256;2024-02-14T12:52:01;100903.88;;;11.42;100.00
57038;BME280;59942;49.304;8.256;2024-02-14T12:54:33;100914.47;;;11.60;100.00
57038;BME280;59942;49.304;8.256;2024-02-14T12:57:00;100905.50;;;11.45;100.00